createdAt,value
2022-10-22T00:01:28.633Z,100353.94
2022-10-22T00:04:34.544Z,100352.03
2022-10-22T00:07:38.571Z,100343.31
2022-10-22T00:10:41.762Z,100346.75
2022-10-22T00:16:52.864Z,100344.19
2022-10-22T00:19:55.468Z,100346.78
2022-10-22T00:22:58.307Z,100345.00
2022-10-22T00:26:01.059Z,100351.97
2022-10-22T00:29:04.782Z,100346.75
2022-10-22T00:32:07.635Z,100353.75
2022-10-22T00:35:10.369Z,100339.81
2022-10-22T00:38:13.034Z,100340.62
2022-10-22T00:41:15.778Z,100337.12
2022-10-22T00:45:02.892Z,100326.69
2022-10-22T00:48:10.455Z,100327.56
2022-10-22T00:51:13.988Z,100322.31
2022-10-22T00:54:16.755Z,100320.59
2022-10-22T00:57:22.812Z,100318.03
2022-10-22T01:00:26.251Z,100313.72
2022-10-22T01:03:29.088Z,100306.78
2022-10-22T01:06:34.237Z,100324.13
2022-10-22T01:09:46.615Z,100325.97
2022-10-22T01:13:05.672Z,100332.88
2022-10-22T01:16:14.639Z,100331.97
2022-10-22T01:19:26.558Z,100330.22
2022-10-22T01:22:38.674Z,100331.06
2022-10-22T01:26:05.552Z,100325.00
2022-10-22T01:29:15.898Z,100324.94
2022-10-22T01:32:24.220Z,100324.94
2022-10-22T01:35:35.096Z,100324.81
2022-10-22T01:38:39.712Z,100329.09
2022-10-22T01:41:45.455Z,100333.41
2022-10-22T01:44:50.170Z,100328.19
2022-10-22T01:48:07.849Z,100318.44
2022-10-22T01:51:13.620Z,100310.59
2022-10-22T01:54:36.316Z,100307.22
2022-10-22T01:57:48.921Z,100300.34
2022-10-22T02:01:00.682Z,100290.63
2022-10-22T02:04:22.968Z,100295.75
2022-10-22T02:07:30.621Z,100300.91
2022-10-22T02:10:34.040Z,100297.34
2022-10-22T02:13:44.763Z,100295.84
2022-10-22T02:16:49.533Z,100302.56
2022-10-22T02:20:00.784Z,100297.28
2022-10-22T02:23:05.033Z,100297.28
2022-10-22T02:26:15.293Z,100306.00
2022-10-22T02:29:27.888Z,100312.09
2022-10-22T02:32:56.128Z,100319.84
2022-10-22T02:36:01.108Z,100313.75
2022-10-22T02:39:05.683Z,100306.72
2022-10-22T02:42:09.678Z,100295.25
2022-10-22T02:45:12.339Z,100294.22
2022-10-22T02:48:15.142Z,100308.16
2022-10-22T02:51:17.941Z,100305.53
2022-10-22T02:54:21.169Z,100308.06
2022-10-22T02:57:23.824Z,100321.06
2022-10-22T03:00:26.619Z,100320.00
2022-10-22T03:03:29.375Z,100315.34
2022-10-22T03:06:32.202Z,100314.22
2022-10-22T03:09:34.816Z,100328.03
2022-10-22T03:12:37.508Z,100334.06
2022-10-22T03:15:40.182Z,100326.13
2022-10-22T03:18:42.905Z,100322.53
2022-10-22T03:21:52.925Z,100316.16
2022-10-22T03:25:00.846Z,100317.81
2022-10-22T03:28:07.037Z,100312.47
2022-10-22T03:31:09.821Z,100310.72
2022-10-22T03:34:13.488Z,100315.03
2022-10-22T03:37:17.038Z,100301.81
2022-10-22T03:40:20.072Z,100298.28
2022-10-22T03:43:22.719Z,100279.88
2022-10-22T03:46:26.389Z,100271.13
2022-10-22T03:49:29.110Z,100272.75
2022-10-22T03:52:37.240Z,100251.81
2022-10-22T03:55:41.679Z,100254.41
2022-10-22T03:58:44.300Z,100272.62
2022-10-22T04:01:47.027Z,100275.34
2022-10-22T04:04:49.900Z,100278.78
2022-10-22T04:07:52.407Z,100285.66
2022-10-22T04:10:55.400Z,100303.00
2022-10-22T04:13:57.840Z,100300.25
2022-10-22T04:17:01.085Z,100295.75
2022-10-22T04:20:04.864Z,100284.44
2022-10-22T04:23:07.794Z,100289.66
2022-10-22T04:26:10.210Z,100293.16
2022-10-22T04:29:16.358Z,100299.22
2022-10-22T04:32:19.053Z,100294.00
2022-10-22T04:35:22.014Z,100294.78
2022-10-22T04:38:24.441Z,100295.47
2022-10-22T04:41:30.360Z,100291.19
2022-10-22T04:44:32.962Z,100292.91
2022-10-22T04:47:35.854Z,100287.75
2022-10-22T04:50:38.411Z,100292.91
2022-10-22T04:53:46.264Z,100290.28
2022-10-22T04:56:48.715Z,100286.78
2022-10-22T04:59:52.507Z,100283.22
2022-10-22T05:02:54.798Z,100287.53
2022-10-22T05:06:01.677Z,100281.50
2022-10-22T05:09:10.825Z,100272.62
2022-10-22T05:12:13.839Z,100282.19
2022-10-22T05:15:16.398Z,100299.53
2022-10-22T05:18:21.870Z,100290.75
2022-10-22T05:21:25.207Z,100291.59
2022-10-22T05:24:30.085Z,100281.16
2022-10-22T05:27:32.516Z,100294.19
2022-10-22T05:30:35.440Z,100291.81
2022-10-22T05:33:38.519Z,100284.81
2022-10-22T05:36:41.980Z,100291.13
2022-10-22T05:39:44.407Z,100296.34
2022-10-22T05:42:47.310Z,100297.38
2022-10-22T05:45:49.721Z,100298.37
2022-10-22T05:48:54.525Z,100285.53
2022-10-22T05:51:57.040Z,100283.84
2022-10-22T05:54:59.921Z,100301.47
2022-10-22T05:58:05.208Z,100298.16
2022-10-22T06:01:18.988Z,100297.53
2022-10-22T06:04:21.759Z,100306.66
2022-10-22T06:07:24.379Z,100310.25
2022-10-22T06:10:27.109Z,100325.19
2022-10-22T06:13:29.748Z,100320.25
2022-10-22T06:16:32.653Z,100316.94
2022-10-22T06:19:35.367Z,100330.22
2022-10-22T06:22:38.533Z,100339.16
2022-10-22T06:25:42.089Z,100336.03
2022-10-22T06:28:44.784Z,100329.22
2022-10-22T06:31:48.259Z,100328.59
2022-10-22T06:34:51.042Z,100327.06
2022-10-22T06:37:53.813Z,100329.25
2022-10-22T06:40:56.553Z,100327.69
2022-10-22T06:44:00.043Z,100334.88
2022-10-22T06:47:02.994Z,100338.69
2022-10-22T06:50:06.072Z,100337.38
2022-10-22T06:53:08.856Z,100350.34
2022-10-22T06:56:14.284Z,100363.84
2022-10-22T06:59:17.019Z,100347.69
2022-10-22T07:02:19.747Z,100347.31
2022-10-22T07:05:22.499Z,100336.50
2022-10-22T07:08:25.154Z,100332.50
2022-10-22T07:11:30.988Z,100331.94
2022-10-22T07:14:33.755Z,100334.75
2022-10-22T07:17:36.807Z,100337.19
2022-10-22T07:20:42.706Z,100333.81
2022-10-22T07:23:45.392Z,100332.03
2022-10-22T07:26:48.048Z,100330.47
2022-10-22T07:29:50.720Z,100332.31
2022-10-22T07:32:53.345Z,100329.06
2022-10-22T07:36:00.884Z,100319.91
2022-10-22T07:39:03.989Z,100316.09
2022-10-22T07:42:06.610Z,100316.53
2022-10-22T07:45:09.666Z,100317.31
2022-10-22T07:48:12.763Z,100305.78
2022-10-22T07:51:16.394Z,100300.94
2022-10-22T07:54:19.364Z,100312.22
2022-10-22T07:57:21.863Z,100300.81
2022-10-22T08:00:25.396Z,100304.56
2022-10-22T08:03:29.501Z,100318.78
2022-10-22T08:06:31.948Z,100307.97
2022-10-22T08:09:35.108Z,100319.41
2022-10-22T08:12:38.611Z,100301.50
2022-10-22T08:18:51.491Z,100307.00
2022-10-22T08:21:54.505Z,100309.56
2022-10-22T08:24:56.955Z,100305.66
2022-10-22T08:27:59.860Z,100301.03
2022-10-22T08:31:05.617Z,100301.37
2022-10-22T08:34:08.488Z,100299.78
2022-10-22T08:37:14.302Z,100304.63
2022-10-22T08:40:26.207Z,100294.66
2022-10-22T08:44:06.215Z,100309.19
2022-10-22T08:47:22.733Z,100318.87
2022-10-22T08:50:49.838Z,100322.84
2022-10-22T08:54:10.961Z,100315.91
2022-10-22T08:57:19.908Z,100326.91
2022-10-22T09:00:23.035Z,100315.56
2022-10-22T09:03:40.122Z,100322.59
2022-10-22T09:06:49.533Z,100324.31
2022-10-22T09:09:57.840Z,100324.09
2022-10-22T09:13:00.849Z,100316.91
2022-10-22T09:16:19.915Z,100329.06
2022-10-22T09:19:38.095Z,100322.69
2022-10-22T09:22:58.668Z,100333.09
2022-10-22T09:26:02.059Z,100322.41
2022-10-22T09:29:05.347Z,100316.22
2022-10-22T09:32:08.461Z,100321.50
2022-10-22T09:35:13.402Z,100321.47
2022-10-22T09:38:20.756Z,100328.50
2022-10-22T09:41:29.928Z,100332.88
2022-10-22T09:44:37.529Z,100339.88
2022-10-22T09:48:00.525Z,100344.22
2022-10-22T09:51:25.889Z,100338.87
2022-10-22T09:54:34.443Z,100348.50
2022-10-22T09:57:38.810Z,100335.34
2022-10-22T10:00:47.912Z,100312.56
2022-10-22T10:03:50.878Z,100320.66
2022-10-22T10:06:56.519Z,100334.69
2022-10-22T10:09:59.752Z,100318.84
2022-10-22T10:13:17.079Z,100325.94
2022-10-22T10:16:29.324Z,100315.37
2022-10-22T10:19:59.957Z,100313.56
2022-10-22T10:23:24.496Z,100300.38
2022-10-22T10:26:34.568Z,100302.22
2022-10-22T10:29:54.633Z,100304.09
2022-10-22T10:33:11.103Z,100315.50
2022-10-22T10:36:43.272Z,100307.34
2022-10-22T10:40:14.923Z,100306.38
2022-10-22T10:43:37.268Z,100302.88
2022-10-22T10:46:48.528Z,100302.06
2022-10-22T10:49:55.768Z,100309.19
2022-10-22T10:53:27.499Z,100311.06
2022-10-22T10:56:41.256Z,100311.19
2022-10-22T10:59:54.933Z,100317.34
2022-10-22T11:03:16.613Z,100316.47
2022-10-22T11:06:25.551Z,100324.44
2022-10-22T11:09:34.485Z,100327.03
2022-10-22T11:12:45.131Z,100317.22
2022-10-22T11:15:57.971Z,100325.16
2022-10-22T11:19:07.036Z,100315.50
2022-10-22T11:22:27.045Z,100315.44
2022-10-22T11:25:34.889Z,100314.50
2022-10-22T11:28:43.897Z,100307.47
2022-10-22T11:31:47.430Z,100302.19
2022-10-22T11:34:54.687Z,100292.50
2022-10-22T11:37:58.102Z,100281.97
2022-10-22T11:41:05.511Z,100283.78
2022-10-22T11:44:07.846Z,100276.84
2022-10-22T11:47:25.394Z,100283.09
2022-10-22T11:50:48.231Z,100282.28
2022-10-22T11:53:57.139Z,100270.97
2022-10-22T11:57:15.533Z,100272.84
2022-10-22T12:00:48.246Z,100271.13
2022-10-22T12:03:58.287Z,100279.16
2022-10-22T12:07:02.009Z,100274.78
2022-10-22T12:10:29.420Z,100270.41
2022-10-22T12:13:52.601Z,100259.00
2022-10-22T12:17:14.921Z,100259.03
2022-10-22T12:20:17.660Z,100266.06
2022-10-22T12:23:31.500Z,100254.59
2022-10-22T12:26:34.966Z,100254.59
2022-10-22T12:29:37.938Z,100250.13
2022-10-22T12:32:41.422Z,100241.25
2022-10-22T12:35:46.523Z,100239.44
2022-10-22T12:38:49.267Z,100239.41
2022-10-22T12:41:54.376Z,100243.72
2022-10-22T12:44:57.180Z,100241.84
2022-10-22T12:48:16.146Z,100240.00
2022-10-22T12:51:20.578Z,100244.34
2022-10-22T12:54:30.630Z,100255.69
2022-10-22T12:57:33.311Z,100264.44
2022-10-22T13:00:36.336Z,100255.59
2022-10-22T13:03:47.066Z,100254.66
2022-10-22T13:06:54.513Z,100261.59
2022-10-22T13:09:59.853Z,100265.97
2022-10-22T13:13:04.067Z,100263.28
2022-10-22T13:19:54.009Z,100258.81
2022-10-22T13:23:00.550Z,100254.34
2022-10-22T13:26:18.092Z,100251.66
2022-10-22T13:29:23.367Z,100261.19
2022-10-22T13:32:34.242Z,100260.25
2022-10-22T13:35:38.258Z,100255.88
2022-10-22T13:38:41.774Z,100249.75
2022-10-22T13:41:45.036Z,100255.03
2022-10-22T13:44:47.901Z,100249.81
2022-10-22T13:47:54.809Z,100256.88
2022-10-22T13:50:57.599Z,100270.94
2022-10-22T13:54:00.998Z,100269.22
2022-10-22T13:57:09.000Z,100262.06
2022-10-22T14:00:18.166Z,100267.34
2022-10-22T14:03:23.925Z,100276.91
2022-10-22T14:06:28.869Z,100274.22
2022-10-22T14:09:31.664Z,100268.94
2022-10-22T14:12:34.291Z,100274.22
2022-10-22T14:15:38.540Z,100269.75
2022-10-22T14:18:41.276Z,100271.47
2022-10-22T14:21:44.021Z,100275.03
2022-10-22T14:24:46.868Z,100283.78
2022-10-22T14:27:50.266Z,100270.59
2022-10-22T14:30:53.891Z,100271.41
2022-10-22T14:33:56.632Z,100270.47
2022-10-22T14:36:59.238Z,100268.69
2022-10-22T14:40:02.805Z,100255.47
2022-10-22T14:43:05.815Z,100257.19
2022-10-22T14:46:11.012Z,100264.19
2022-10-22T14:49:13.859Z,100269.41
2022-10-22T14:52:16.811Z,100272.91
2022-10-22T14:55:19.964Z,100277.19
2022-10-22T14:58:22.640Z,100278.91
2022-10-22T15:01:25.233Z,100283.22
2022-10-22T15:04:28.222Z,100285.78
2022-10-22T15:07:30.994Z,100285.69
2022-10-22T15:10:33.717Z,100275.16
2022-10-22T15:13:36.369Z,100283.94
2022-10-22T15:16:39.251Z,100276.84
2022-10-22T15:19:43.573Z,100282.97
2022-10-22T15:22:46.319Z,100286.38
2022-10-22T15:25:49.061Z,100281.94
2022-10-22T15:28:51.880Z,100284.53
2022-10-22T15:31:57.880Z,100283.59
2022-10-22T15:35:01.567Z,100290.56
2022-10-22T15:38:06.616Z,100291.28
2022-10-22T15:41:12.420Z,100290.34
2022-10-22T15:44:20.738Z,100290.31
2022-10-22T15:47:25.296Z,100292.84
2022-10-22T15:50:28.028Z,100291.00
2022-10-22T15:53:30.730Z,100303.09
2022-10-22T15:56:33.597Z,100296.06
2022-10-22T15:59:36.576Z,100314.38
2022-10-22T16:02:39.496Z,100309.09
2022-10-22T16:05:50.420Z,100325.56
2022-10-22T16:08:54.654Z,100341.28
2022-10-22T16:11:57.555Z,100340.31
2022-10-22T16:15:01.730Z,100362.06
2022-10-22T16:18:04.684Z,100352.44
2022-10-22T16:21:12.929Z,100357.62
2022-10-22T16:24:15.800Z,100361.91
2022-10-22T16:27:18.473Z,100368.84
2022-10-22T16:30:21.443Z,100374.00
2022-10-22T16:33:24.233Z,100384.34
2022-10-22T16:36:27.055Z,100397.25
2022-10-22T16:39:29.774Z,100405.06
2022-10-22T16:42:32.743Z,100414.56
2022-10-22T16:45:35.674Z,100417.03
2022-10-22T16:48:42.070Z,100421.47
2022-10-22T16:51:45.283Z,100429.06
2022-10-22T16:54:48.080Z,100421.97
2022-10-22T16:57:53.900Z,100427.88
2022-10-22T17:00:56.930Z,100430.50
2022-10-22T17:04:00.708Z,100430.44
2022-10-22T17:07:03.582Z,100433.87
2022-10-22T17:10:09.108Z,100433.87
2022-10-22T17:13:15.361Z,100435.62
2022-10-22T17:16:20.383Z,100443.34
2022-10-22T17:19:24.016Z,100437.22
2022-10-22T17:22:27.225Z,100432.75
2022-10-22T17:25:42.069Z,100426.56
2022-10-22T17:28:45.201Z,100428.19
2022-10-22T17:31:48.687Z,100429.94
2022-10-22T17:34:51.487Z,100432.44
2022-10-22T17:37:54.420Z,100434.06
2022-10-22T17:40:59.150Z,100446.25
2022-10-22T17:44:05.638Z,100448.97
2022-10-22T17:47:09.150Z,100447.84
2022-10-22T17:50:12.060Z,100457.28
2022-10-22T17:53:15.088Z,100462.41
2022-10-22T17:56:21.705Z,100468.56
2022-10-22T17:59:24.927Z,100466.81
2022-10-22T18:02:30.402Z,100451.81
2022-10-22T18:05:33.812Z,100457.91
2022-10-22T18:08:36.965Z,100465.69
2022-10-22T18:11:41.000Z,100466.56
2022-10-22T18:14:44.104Z,100483.97
2022-10-22T18:17:50.206Z,100477.87
2022-10-22T18:20:53.614Z,100501.59
2022-10-22T18:23:59.898Z,100495.38
2022-10-22T18:27:04.039Z,100487.25
2022-10-22T18:30:07.665Z,100482.69
2022-10-22T18:33:12.525Z,100488.97
2022-10-22T18:36:19.214Z,100490.47
2022-10-22T18:39:21.801Z,100504.50
2022-10-22T18:42:26.456Z,100505.50
2022-10-22T18:45:32.824Z,100508.91
2022-10-22T18:48:36.936Z,100515.47
2022-10-22T18:51:39.905Z,100519.78
2022-10-22T18:54:43.248Z,100514.69
2022-10-22T18:57:45.951Z,100514.66
2022-10-22T19:00:50.581Z,100522.59
2022-10-22T19:03:53.284Z,100506.50
2022-10-22T19:06:58.809Z,100505.47
2022-10-22T19:10:01.371Z,100522.84
2022-10-22T19:13:04.416Z,100523.34
2022-10-22T19:16:09.486Z,100521.22
2022-10-22T19:19:16.358Z,100517.59
2022-10-22T19:22:18.938Z,100511.63
2022-10-22T19:25:22.143Z,100527.06
2022-10-22T19:28:24.577Z,100526.88
2022-10-22T19:31:29.968Z,100526.88
2022-10-22T19:34:32.599Z,100547.69
2022-10-22T19:37:37.097Z,100536.94
2022-10-22T19:40:42.293Z,100544.69
2022-10-22T19:43:48.521Z,100548.03
2022-10-22T19:46:51.017Z,100551.22
2022-10-22T19:49:54.223Z,100567.59
2022-10-22T19:52:56.711Z,100563.97
2022-10-22T19:56:00.537Z,100561.19
2022-10-22T19:59:04.331Z,100564.47
2022-10-22T20:02:11.993Z,100566.06
2022-10-22T20:05:14.784Z,100570.31
2022-10-22T20:08:17.549Z,100578.06
2022-10-22T20:11:23.494Z,100584.06
2022-10-22T20:14:26.482Z,100594.31
2022-10-22T20:17:29.283Z,100599.44
2022-10-22T20:20:31.977Z,100614.25
2022-10-22T20:23:35.374Z,100610.56
2022-10-22T20:26:38.647Z,100610.34
2022-10-22T20:29:42.757Z,100613.16
2022-10-22T20:32:45.606Z,100614.38
2022-10-22T20:36:01.753Z,100610.09
2022-10-22T20:39:08.215Z,100608.19
2022-10-22T20:42:11.103Z,100602.91
2022-10-22T20:45:13.789Z,100611.56
2022-10-22T20:48:16.593Z,100609.13
2022-10-22T20:51:19.465Z,100619.59
2022-10-22T20:54:22.591Z,100615.34
2022-10-22T20:57:25.504Z,100625.78
2022-10-22T21:00:28.381Z,100632.66
2022-10-22T21:06:41.424Z,100634.53
2022-10-22T21:09:44.240Z,100640.53
2022-10-22T21:12:47.130Z,100628.88
2022-10-22T21:15:49.878Z,100624.47
2022-10-22T21:18:52.620Z,100629.53
2022-10-22T21:21:55.558Z,100640.00
2022-10-22T21:24:58.600Z,100636.44
2022-10-22T21:28:01.592Z,100633.72
2022-10-22T21:31:06.835Z,100642.91
2022-10-22T21:34:09.836Z,100646.19
2022-10-22T21:37:12.719Z,100636.50
2022-10-22T21:40:15.560Z,100639.72
2022-10-22T21:43:18.763Z,100646.69
2022-10-22T21:46:27.017Z,100633.63
2022-10-22T21:49:29.762Z,100629.12
2022-10-22T21:52:32.425Z,100627.31
2022-10-22T21:55:39.649Z,100631.78
2022-10-22T21:58:42.494Z,100621.56
2022-10-22T22:01:45.339Z,100618.94
2022-10-22T22:04:50.486Z,100633.63
2022-10-22T22:07:52.971Z,100628.62
2022-10-22T22:11:23.535Z,100633.94
2022-10-22T22:14:26.155Z,100628.88
2022-10-22T22:17:29.064Z,100628.75
2022-10-22T22:20:31.560Z,100631.38
2022-10-22T22:23:37.719Z,100629.81
2022-10-22T22:26:40.989Z,100636.63
2022-10-22T22:29:44.169Z,100636.50
2022-10-22T22:32:46.732Z,100649.53
2022-10-22T22:35:49.971Z,100648.56
2022-10-22T22:38:56.815Z,100657.22
2022-10-22T22:41:59.970Z,100662.56
2022-10-22T22:45:02.634Z,100657.22
2022-10-22T22:48:06.012Z,100660.87
2022-10-22T22:51:08.648Z,100651.31
2022-10-22T22:54:11.843Z,100656.81
2022-10-22T22:57:15.216Z,100667.22
2022-10-22T23:00:18.344Z,100677.72
2022-10-22T23:03:21.530Z,100677.47
2022-10-22T23:06:27.056Z,100689.78
2022-10-22T23:09:29.463Z,100688.97
2022-10-22T23:12:32.487Z,100688.00
2022-10-22T23:15:38.831Z,100681.13
2022-10-22T23:18:42.513Z,100673.28
2022-10-22T23:21:48.247Z,100691.47
2022-10-22T23:24:51.143Z,100688.00
2022-10-22T23:27:53.596Z,100672.72
2022-10-22T23:30:56.557Z,100682.78
2022-10-22T23:33:59.617Z,100687.91
2022-10-22T23:37:02.718Z,100690.69
2022-10-22T23:40:05.868Z,100682.81
2022-10-22T23:43:08.878Z,100686.19
2022-10-22T23:46:12.958Z,100689.69
2022-10-22T23:49:16.856Z,100700.12
2022-10-22T23:52:19.669Z,100691.47
2022-10-22T23:55:22.682Z,100686.19
2022-10-22T23:58:25.183Z,100691.47
